首页
METAR-TAF:

METAR-TAF

机场 :

里昂, 法国

纬度: 45-43N, 经度: 004-57E, 海拔: 200米

当前天气观测

该预报发布于32分钟前的15:00 UTC
风速7节,风向,在南转南东南转西南之间变化
温度 26°C
湿度 45%
气压 1008 hPa
能见度10公里或以上
1500米以下无云,无积雨云

METAR: LFLY 231500Z AUTO 18007KT 150V210 CAVOK 26/13 Q1008 NOSIG

时间: 17:32 (15:32 UTC)

预报

该预报发布于4小时和32分钟前的11:00 UTC
预报有效从23日的 12点(UTC)到 24日的 12点(UTC)
风速3节,风向多变
能见度10公里或以上
1500米以下无云,无积雨云
成为
从 23日的 12点(UTC)到 23日的 15点(UTC)
风速8节,风向
几率 40% :
短暂存在
从 23日的 20点(UTC)到 23日的 24点(UTC)
少量云层高于5000英尺, 塔状积云.
多云层高于7000英尺
小阵雨
成为
从 24日的 09点(UTC)到 24日的 11点(UTC)
散云层高于4000英尺, 塔状积云.
多云层高于6000英尺
短暂存在
从 24日的 11点(UTC)到 24日的 12点(UTC)
阵雨

TAF: LFLY 231100Z 2312/2412 VRB03KT CAVOK BECMG 2312/2315 17008KT PROB40 TEMPO 2320/2324 -SHRA FEW050TCU BKN070 BECMG 2409/2411 SCT040TCU BKN060 TEMPO 2411/2412 SHRA

超过4000个机场的气象观测和天气预报(METAR&TAF报告)。

可查询的气象台以黄色和红色小点在地图上表示。

将鼠标移到小点上方,可查看气象台名称。

然后点击查看天气观测和预报。

如需切换地图:点击带黑十字的绿色按钮放大地图;点击带横线的绿色按钮缩小地图;或者点击绿色箭头查看邻近地区的地图。


METAR-TAF: